sensor_id;sensor_type;location;lat;lon;timestamp;P1;durP1;ratioP1;P2;durP2;ratioP2
69847;SDS011;57143;55.940;37.496;2023-08-17T00:02:25;13.20;;;7.20;;
69847;SDS011;57143;55.940;37.496;2023-08-17T00:04:53;17.25;;;7.18;;
69847;SDS011;57143;55.940;37.496;2023-08-17T00:07:20;16.38;;;7.55;;
69847;SDS011;57143;55.940;37.496;2023-08-17T00:09:47;15.85;;;7.30;;
69847;SDS011;57143;55.940;37.496;2023-08-17T00:12:15;16.55;;;7.38;;
69847;SDS011;57143;55.940;37.496;2023-08-17T00:14:42;14.40;;;7.17;;
69847;SDS011;57143;55.940;37.496;2023-08-17T00:17:10;14.13;;;8.27;;
69847;SDS011;57143;55.940;37.496;2023-08-17T00:19:37;15.13;;;7.82;;
69847;SDS011;57143;55.940;37.496;2023-08-17T00:22:05;15.95;;;7.55;;
69847;SDS011;57143;55.940;37.496;2023-08-17T00:24:32;13.18;;;7.78;;
69847;SDS011;57143;55.940;37.496;2023-08-17T00:26:59;15.93;;;7.80;;
69847;SDS011;57143;55.940;37.496;2023-08-17T00:29:27;18.67;;;7.82;;
69847;SDS011;57143;55.940;37.496;2023-08-17T00:31:54;15.05;;;7.93;;
69847;SDS011;57143;55.940;37.496;2023-08-17T00:34:22;15.98;;;7.68;;
69847;SDS011;57143;55.940;37.496;2023-08-17T00:36:50;15.10;;;7.70;;
69847;SDS011;57143;55.940;37.496;2023-08-17T00:39:17;14.30;;;7.00;;
69847;SDS011;57143;55.940;37.496;2023-08-17T00:41:45;15.63;;;7.85;;
69847;SDS011;57143;55.940;37.496;2023-08-17T00:44:12;16.40;;;7.18;;
69847;SDS011;57143;55.940;37.496;2023-08-17T00:46:40;17.75;;;9.27;;
69847;SDS011;57143;55.940;37.496;2023-08-17T00:49:07;24.60;;;9.93;;
69847;SDS011;57143;55.940;37.496;2023-08-17T00:51:36;16.87;;;8.80;;
69847;SDS011;57143;55.940;37.496;2023-08-17T00:54:03;15.90;;;8.65;;
69847;SDS011;57143;55.940;37.496;2023-08-17T00:56:31;17.75;;;8.60;;
69847;SDS011;57143;55.940;37.496;2023-08-17T00:58:58;18.58;;;9.25;;
69847;SDS011;57143;55.940;37.496;2023-08-17T01:01:26;17.05;;;8.73;;
69847;SDS011;57143;55.940;37.496;2023-08-17T01:03:54;15.87;;;8.40;;
69847;SDS011;57143;55.940;37.496;2023-08-17T01:06:21;20.95;;;9.07;;
69847;SDS011;57143;55.940;37.496;2023-08-17T01:08:50;16.38;;;8.80;;
69847;SDS011;57143;55.940;37.496;2023-08-17T01:11:20;17.45;;;8.63;;
69847;SDS011;57143;55.940;37.496;2023-08-17T01:14:00;15.10;;;7.85;;
69847;SDS011;57143;55.940;37.496;2023-08-17T01:16:33;16.73;;;8.03;;
69847;SDS011;57143;55.940;37.496;2023-08-17T01:19:06;16.80;;;8.77;;
69847;SDS011;57143;55.940;37.496;2023-08-17T01:21:35;15.32;;;8.60;;
69847;SDS011;57143;55.940;37.496;2023-08-17T01:24:10;14.50;;;7.40;;
69847;SDS011;57143;55.940;37.496;2023-08-17T01:26:38;14.57;;;7.82;;
69847;SDS011;57143;55.940;37.496;2023-08-17T01:29:05;14.73;;;7.90;;
69847;SDS011;57143;55.940;37.496;2023-08-17T01:31:34;14.70;;;7.90;;
69847;SDS011;57143;55.940;37.496;2023-08-17T01:34:08;16.20;;;7.85;;
69847;SDS011;57143;55.940;37.496;2023-08-17T01:36:45;17.80;;;8.30;;
69847;SDS011;57143;55.940;37.496;2023-08-17T01:39:18;15.57;;;8.05;;
69847;SDS011;57143;55.940;37.496;2023-08-17T01:41:50;15.70;;;8.27;;
69847;SDS011;57143;55.940;37.496;2023-08-17T01:44:19;12.77;;;7.68;;
69847;SDS011;57143;55.940;37.496;2023-08-17T01:46:47;13.40;;;8.00;;
69847;SDS011;57143;55.940;37.496;2023-08-17T01:49:15;17.05;;;7.88;;
69847;SDS011;57143;55.940;37.496;2023-08-17T01:51:42;14.75;;;7.53;;
69847;SDS011;57143;55.940;37.496;2023-08-17T01:54:09;14.87;;;7.83;;
69847;SDS011;57143;55.940;37.496;2023-08-17T01:56:38;16.30;;;8.13;;
69847;SDS011;57143;55.940;37.496;2023-08-17T01:59:05;17.58;;;9.02;;
69847;SDS011;57143;55.940;37.496;2023-08-17T02:01:32;15.15;;;8.02;;
69847;SDS011;57143;55.940;37.496;2023-08-17T02:03:59;14.93;;;8.30;;
69847;SDS011;57143;55.940;37.496;2023-08-17T02:06:27;15.30;;;7.73;;
69847;SDS011;57143;55.940;37.496;2023-08-17T02:08:55;14.50;;;7.47;;
69847;SDS011;57143;55.940;37.496;2023-08-17T02:11:22;14.50;;;7.88;;
69847;SDS011;57143;55.940;37.496;2023-08-17T02:13:51;14.27;;;8.00;;
69847;SDS011;57143;55.940;37.496;2023-08-17T02:16:18;14.07;;;8.13;;
69847;SDS011;57143;55.940;37.496;2023-08-17T02:18:45;15.30;;;8.20;;
69847;SDS011;57143;55.940;37.496;2023-08-17T02:21:13;14.18;;;8.52;;
69847;SDS011;57143;55.940;37.496;2023-08-17T02:23:40;16.38;;;7.70;;
69847;SDS011;57143;55.940;37.496;2023-08-17T02:26:07;13.13;;;7.90;;
69847;SDS011;57143;55.940;37.496;2023-08-17T02:28:34;12.82;;;7.50;;
69847;SDS011;57143;55.940;37.496;2023-08-17T02:31:03;13.87;;;6.67;;
69847;SDS011;57143;55.940;37.496;2023-08-17T02:33:31;12.68;;;7.10;;
69847;SDS011;57143;55.940;37.496;2023-08-17T02:36:00;15.52;;;7.32;;
69847;SDS011;57143;55.940;37.496;2023-08-17T02:38:27;16.77;;;6.95;;
69847;SDS011;57143;55.940;37.496;2023-08-17T02:40:54;11.95;;;6.75;;
69847;SDS011;57143;55.940;37.496;2023-08-17T02:43:22;13.70;;;6.87;;
69847;SDS011;57143;55.940;37.496;2023-08-17T02:45:49;13.77;;;6.85;;
69847;SDS011;57143;55.940;37.496;2023-08-17T02:48:18;16.02;;;7.93;;
69847;SDS011;57143;55.940;37.496;2023-08-17T02:50:45;16.05;;;7.32;;
69847;SDS011;57143;55.940;37.496;2023-08-17T02:53:13;13.70;;;6.32;;
69847;SDS011;57143;55.940;37.496;2023-08-17T02:55:40;14.00;;;6.47;;
69847;SDS011;57143;55.940;37.496;2023-08-17T02:58:07;11.65;;;6.47;;
69847;SDS011;57143;55.940;37.496;2023-08-17T03:00:34;13.75;;;7.22;;
69847;SDS011;57143;55.940;37.496;2023-08-17T03:03:02;12.23;;;6.82;;
69847;SDS011;57143;55.940;37.496;2023-08-17T03:05:30;13.00;;;7.63;;
69847;SDS011;57143;55.940;37.496;2023-08-17T03:07:57;14.17;;;7.57;;
69847;SDS011;57143;55.940;37.496;2023-08-17T03:10:25;12.88;;;6.28;;
69847;SDS011;57143;55.940;37.496;2023-08-17T03:12:52;16.27;;;7.32;;
69847;SDS011;57143;55.940;37.496;2023-08-17T03:15:19;12.50;;;6.80;;
69847;SDS011;57143;55.940;37.496;2023-08-17T03:17:46;13.23;;;6.90;;
69847;SDS011;57143;55.940;37.496;2023-08-17T03:20:14;12.60;;;7.53;;
69847;SDS011;57143;55.940;37.496;2023-08-17T03:22:42;11.40;;;6.72;;
69847;SDS011;57143;55.940;37.496;2023-08-17T03:25:10;13.85;;;7.47;;
69847;SDS011;57143;55.940;37.496;2023-08-17T03:27:37;12.07;;;6.60;;
69847;SDS011;57143;55.940;37.496;2023-08-17T03:30:05;13.82;;;7.22;;
69847;SDS011;57143;55.940;37.496;2023-08-17T03:32:33;17.63;;;6.83;;
69847;SDS011;57143;55.940;37.496;2023-08-17T03:35:00;14.00;;;7.63;;
69847;SDS011;57143;55.940;37.496;2023-08-17T03:37:30;13.40;;;7.22;;
69847;SDS011;57143;55.940;37.496;2023-08-17T03:39:58;14.27;;;6.80;;
69847;SDS011;57143;55.940;37.496;2023-08-17T03:42:26;12.27;;;6.88;;
69847;SDS011;57143;55.940;37.496;2023-08-17T03:44:54;13.27;;;7.27;;
69847;SDS011;57143;55.940;37.496;2023-08-17T03:47:22;11.02;;;6.70;;
69847;SDS011;57143;55.940;37.496;2023-08-17T03:49:49;12.45;;;6.75;;
69847;SDS011;57143;55.940;37.496;2023-08-17T03:52:16;11.95;;;6.57;;
69847;SDS011;57143;55.940;37.496;2023-08-17T03:54:43;12.20;;;6.95;;
69847;SDS011;57143;55.940;37.496;2023-08-17T03:57:13;12.53;;;6.50;;
69847;SDS011;57143;55.940;37.496;2023-08-17T03:59:40;11.25;;;5.68;;
69847;SDS011;57143;55.940;37.496;2023-08-17T04:02:08;12.13;;;5.88;;
69847;SDS011;57143;55.940;37.496;2023-08-17T04:04:36;10.52;;;5.95;;
69847;SDS011;57143;55.940;37.496;2023-08-17T04:07:03;10.52;;;5.45;;
69847;SDS011;57143;55.940;37.496;2023-08-17T04:09:32;12.73;;;5.87;;
69847;SDS011;57143;55.940;37.496;2023-08-17T04:11:59;10.13;;;5.05;;
69847;SDS011;57143;55.940;37.496;2023-08-17T04:14:30;11.20;;;5.10;;
69847;SDS011;57143;55.940;37.496;2023-08-17T04:16:58;8.82;;;4.90;;
69847;SDS011;57143;55.940;37.496;2023-08-17T04:19:25;10.13;;;4.85;;
69847;SDS011;57143;55.940;37.496;2023-08-17T04:21:52;7.83;;;4.93;;
69847;SDS011;57143;55.940;37.496;2023-08-17T04:24:20;12.38;;;6.03;;
69847;SDS011;57143;55.940;37.496;2023-08-17T04:26:47;9.88;;;5.22;;
69847;SDS011;57143;55.940;37.496;2023-08-17T04:29:14;9.30;;;5.70;;
69847;SDS011;57143;55.940;37.496;2023-08-17T04:31:43;11.57;;;5.43;;
69847;SDS011;57143;55.940;37.496;2023-08-17T04:34:11;11.37;;;5.80;;
69847;SDS011;57143;55.940;37.496;2023-08-17T04:36:38;10.93;;;5.90;;
69847;SDS011;57143;55.940;37.496;2023-08-17T04:39:05;13.02;;;5.65;;
69847;SDS011;57143;55.940;37.496;2023-08-17T04:41:34;10.90;;;5.90;;
69847;SDS011;57143;55.940;37.496;2023-08-17T04:44:02;10.27;;;5.43;;
69847;SDS011;57143;55.940;37.496;2023-08-17T04:46:29;9.20;;;5.43;;
69847;SDS011;57143;55.940;37.496;2023-08-17T04:48:58;13.68;;;5.95;;
69847;SDS011;57143;55.940;37.496;2023-08-17T04:51:25;8.80;;;5.70;;
69847;SDS011;57143;55.940;37.496;2023-08-17T04:53:52;11.13;;;5.75;;
69847;SDS011;57143;55.940;37.496;2023-08-17T04:56:20;11.57;;;6.28;;
69847;SDS011;57143;55.940;37.496;2023-08-17T04:58:47;9.40;;;5.77;;
69847;SDS011;57143;55.940;37.496;2023-08-17T05:01:14;9.63;;;5.43;;
69847;SDS011;57143;55.940;37.496;2023-08-17T05:03:43;11.00;;;5.10;;
69847;SDS011;57143;55.940;37.496;2023-08-17T05:06:12;8.73;;;5.53;;
69847;SDS011;57143;55.940;37.496;2023-08-17T05:08:39;9.48;;;4.78;;
69847;SDS011;57143;55.940;37.496;2023-08-17T05:11:07;8.57;;;4.40;;
69847;SDS011;57143;55.940;37.496;2023-08-17T05:13:34;9.05;;;5.00;;
69847;SDS011;57143;55.940;37.496;2023-08-17T05:16:01;12.63;;;6.43;;
69847;SDS011;57143;55.940;37.496;2023-08-17T05:18:29;10.38;;;5.20;;
69847;SDS011;57143;55.940;37.496;2023-08-17T05:20:56;8.25;;;4.38;;
69847;SDS011;57143;55.940;37.496;2023-08-17T05:23:25;7.17;;;4.27;;
69847;SDS011;57143;55.940;37.496;2023-08-17T05:25:52;10.13;;;4.07;;
69847;SDS011;57143;55.940;37.496;2023-08-17T05:28:19;9.55;;;4.78;;
69847;SDS011;57143;55.940;37.496;2023-08-17T05:30:47;8.88;;;5.38;;
69847;SDS011;57143;55.940;37.496;2023-08-17T05:33:15;11.82;;;4.57;;
69847;SDS011;57143;55.940;37.496;2023-08-17T05:35:42;7.97;;;3.70;;
69847;SDS011;57143;55.940;37.496;2023-08-17T05:38:09;8.30;;;4.10;;
69847;SDS011;57143;55.940;37.496;2023-08-17T05:40:38;8.68;;;4.43;;
69847;SDS011;57143;55.940;37.496;2023-08-17T05:43:05;7.22;;;3.72;;
69847;SDS011;57143;55.940;37.496;2023-08-17T05:45:32;9.50;;;4.40;;
69847;SDS011;57143;55.940;37.496;2023-08-17T05:48:02;8.60;;;3.80;;
69847;SDS011;57143;55.940;37.496;2023-08-17T05:50:30;8.57;;;3.67;;
69847;SDS011;57143;55.940;37.496;2023-08-17T05:52:57;7.00;;;3.35;;
69847;SDS011;57143;55.940;37.496;2023-08-17T05:55:24;9.63;;;3.95;;
69847;SDS011;57143;55.940;37.496;2023-08-17T05:57:53;10.88;;;3.30;;
69847;SDS011;57143;55.940;37.496;2023-08-17T06:00:20;8.17;;;3.40;;
69847;SDS011;57143;55.940;37.496;2023-08-17T06:02:47;6.38;;;3.00;;
69847;SDS011;57143;55.940;37.496;2023-08-17T06:05:16;7.47;;;3.25;;
69847;SDS011;57143;55.940;37.496;2023-08-17T06:07:44;7.82;;;3.60;;
69847;SDS011;57143;55.940;37.496;2023-08-17T06:10:11;5.03;;;2.70;;
69847;SDS011;57143;55.940;37.496;2023-08-17T06:12:39;7.13;;;3.20;;
69847;SDS011;57143;55.940;37.496;2023-08-17T06:15:08;5.82;;;2.75;;
69847;SDS011;57143;55.940;37.496;2023-08-17T06:17:35;8.52;;;3.70;;
69847;SDS011;57143;55.940;37.496;2023-08-17T06:20:03;6.45;;;3.50;;
69847;SDS011;57143;55.940;37.496;2023-08-17T06:22:30;7.40;;;3.67;;
69847;SDS011;57143;55.940;37.496;2023-08-17T06:24:58;5.83;;;2.83;;
69847;SDS011;57143;55.940;37.496;2023-08-17T06:27:25;7.75;;;3.17;;
69847;SDS011;57143;55.940;37.496;2023-08-17T06:29:52;7.45;;;3.42;;
69847;SDS011;57143;55.940;37.496;2023-08-17T06:32:21;7.78;;;3.25;;
69847;SDS011;57143;55.940;37.496;2023-08-17T06:34:48;6.65;;;3.35;;
69847;SDS011;57143;55.940;37.496;2023-08-17T06:37:15;6.20;;;3.20;;
69847;SDS011;57143;55.940;37.496;2023-08-17T06:39:42;8.43;;;3.72;;
69847;SDS011;57143;55.940;37.496;2023-08-17T06:42:10;6.93;;;2.83;;
69847;SDS011;57143;55.940;37.496;2023-08-17T06:44:37;8.45;;;3.17;;
69847;SDS011;57143;55.940;37.496;2023-08-17T06:47:04;4.75;;;2.35;;
69847;SDS011;57143;55.940;37.496;2023-08-17T06:49:34;6.53;;;2.70;;
69847;SDS011;57143;55.940;37.496;2023-08-17T06:52:01;7.38;;;3.15;;
69847;SDS011;57143;55.940;37.496;2023-08-17T06:54:28;5.50;;;2.60;;
69847;SDS011;57143;55.940;37.496;2023-08-17T06:56:57;6.13;;;2.75;;
69847;SDS011;57143;55.940;37.496;2023-08-17T06:59:24;6.18;;;3.25;;
69847;SDS011;57143;55.940;37.496;2023-08-17T07:01:52;7.47;;;2.87;;
69847;SDS011;57143;55.940;37.496;2023-08-17T07:04:19;6.00;;;2.30;;
69847;SDS011;57143;55.940;37.496;2023-08-17T07:06:48;5.10;;;2.72;;
69847;SDS011;57143;55.940;37.496;2023-08-17T07:09:16;7.68;;;2.53;;
69847;SDS011;57143;55.940;37.496;2023-08-17T07:11:44;6.20;;;2.78;;
69847;SDS011;57143;55.940;37.496;2023-08-17T07:14:11;5.87;;;2.40;;
69847;SDS011;57143;55.940;37.496;2023-08-17T07:16:38;5.93;;;2.60;;
69847;SDS011;57143;55.940;37.496;2023-08-17T07:19:06;5.63;;;3.03;;
69847;SDS011;57143;55.940;37.496;2023-08-17T07:21:33;7.50;;;2.58;;
69847;SDS011;57143;55.940;37.496;2023-08-17T07:24:10;6.38;;;2.95;;
69847;SDS011;57143;55.940;37.496;2023-08-17T07:26:38;11.70;;;3.37;;
69847;SDS011;57143;55.940;37.496;2023-08-17T07:29:06;6.85;;;2.83;;
69847;SDS011;57143;55.940;37.496;2023-08-17T07:31:33;7.45;;;3.60;;
69847;SDS011;57143;55.940;37.496;2023-08-17T07:34:03;8.13;;;4.22;;
69847;SDS011;57143;55.940;37.496;2023-08-17T07:36:31;6.18;;;3.03;;
69847;SDS011;57143;55.940;37.496;2023-08-17T07:38:58;6.97;;;3.03;;
69847;SDS011;57143;55.940;37.496;2023-08-17T07:41:27;6.57;;;3.20;;
69847;SDS011;57143;55.940;37.496;2023-08-17T07:43:54;10.18;;;3.28;;
69847;SDS011;57143;55.940;37.496;2023-08-17T07:46:22;12.07;;;3.38;;
69847;SDS011;57143;55.940;37.496;2023-08-17T07:48:49;7.28;;;2.58;;
69847;SDS011;57143;55.940;37.496;2023-08-17T07:51:16;6.37;;;2.97;;
69847;SDS011;57143;55.940;37.496;2023-08-17T07:53:44;7.68;;;3.03;;
69847;SDS011;57143;55.940;37.496;2023-08-17T07:56:11;7.45;;;3.95;;
69847;SDS011;57143;55.940;37.496;2023-08-17T07:58:40;6.22;;;3.10;;
69847;SDS011;57143;55.940;37.496;2023-08-17T08:01:07;8.25;;;4.20;;
69847;SDS011;57143;55.940;37.496;2023-08-17T08:03:34;10.57;;;4.77;;
69847;SDS011;57143;55.940;37.496;2023-08-17T08:06:01;7.63;;;2.90;;
69847;SDS011;57143;55.940;37.496;2023-08-17T08:08:29;6.07;;;3.33;;
69847;SDS011;57143;55.940;37.496;2023-08-17T08:10:56;6.57;;;2.97;;
69847;SDS011;57143;55.940;37.496;2023-08-17T08:13:23;6.40;;;3.05;;
69847;SDS011;57143;55.940;37.496;2023-08-17T08:15:52;7.10;;;2.77;;
69847;SDS011;57143;55.940;37.496;2023-08-17T08:18:19;5.35;;;2.83;;
69847;SDS011;57143;55.940;37.496;2023-08-17T08:20:46;7.75;;;2.95;;
69847;SDS011;57143;55.940;37.496;2023-08-17T08:23:13;6.20;;;2.67;;
69847;SDS011;57143;55.940;37.496;2023-08-17T08:25:40;7.45;;;2.67;;
69847;SDS011;57143;55.940;37.496;2023-08-17T08:28:08;5.83;;;2.93;;
69847;SDS011;57143;55.940;37.496;2023-08-17T08:30:36;7.03;;;2.50;;
69847;SDS011;57143;55.940;37.496;2023-08-17T08:33:04;5.63;;;2.90;;
69847;SDS011;57143;55.940;37.496;2023-08-17T08:35:32;6.57;;;2.70;;
69847;SDS011;57143;55.940;37.496;2023-08-17T08:37:59;6.43;;;3.03;;
69847;SDS011;57143;55.940;37.496;2023-08-17T08:40:26;5.20;;;2.20;;
69847;SDS011;57143;55.940;37.496;2023-08-17T08:42:55;8.40;;;2.55;;
69847;SDS011;57143;55.940;37.496;2023-08-17T08:45:22;5.75;;;2.75;;
69847;SDS011;57143;55.940;37.496;2023-08-17T08:47:50;6.47;;;3.10;;
69847;SDS011;57143;55.940;37.496;2023-08-17T08:50:20;7.15;;;2.90;;
69847;SDS011;57143;55.940;37.496;2023-08-17T08:52:50;5.83;;;2.67;;
69847;SDS011;57143;55.940;37.496;2023-08-17T08:55:26;7.10;;;2.90;;
69847;SDS011;57143;55.940;37.496;2023-08-17T08:57:56;5.75;;;2.83;;
69847;SDS011;57143;55.940;37.496;2023-08-17T09:00:25;6.82;;;2.83;;
69847;SDS011;57143;55.940;37.496;2023-08-17T09:02:53;6.10;;;2.80;;
69847;SDS011;57143;55.940;37.496;2023-08-17T09:05:23;7.70;;;2.53;;
69847;SDS011;57143;55.940;37.496;2023-08-17T09:07:52;6.40;;;2.67;;
69847;SDS011;57143;55.940;37.496;2023-08-17T09:10:20;6.90;;;3.08;;
69847;SDS011;57143;55.940;37.496;2023-08-17T09:12:47;6.30;;;3.20;;
69847;SDS011;57143;55.940;37.496;2023-08-17T09:15:15;5.85;;;3.05;;
69847;SDS011;57143;55.940;37.496;2023-08-17T09:17:42;6.30;;;3.13;;
69847;SDS011;57143;55.940;37.496;2023-08-17T09:20:10;6.63;;;3.03;;
69847;SDS011;57143;55.940;37.496;2023-08-17T09:22:40;6.70;;;3.25;;
69847;SDS011;57143;55.940;37.496;2023-08-17T09:25:09;6.72;;;3.00;;
69847;SDS011;57143;55.940;37.496;2023-08-17T09:27:37;8.32;;;3.50;;
69847;SDS011;57143;55.940;37.496;2023-08-17T09:30:08;7.60;;;3.20;;
69847;SDS011;57143;55.940;37.496;2023-08-17T09:32:36;6.22;;;2.80;;
69847;SDS011;57143;55.940;37.496;2023-08-17T09:35:04;6.47;;;3.20;;
69847;SDS011;57143;55.940;37.496;2023-08-17T09:37:32;6.72;;;3.03;;
69847;SDS011;57143;55.940;37.496;2023-08-17T09:40:01;6.28;;;3.13;;
69847;SDS011;57143;55.940;37.496;2023-08-17T09:42:34;7.90;;;3.33;;
69847;SDS011;57143;55.940;37.496;2023-08-17T09:45:02;7.25;;;3.13;;
69847;SDS011;57143;55.940;37.496;2023-08-17T09:47:32;6.43;;;3.17;;
69847;SDS011;57143;55.940;37.496;2023-08-17T09:50:00;8.18;;;3.22;;
69847;SDS011;57143;55.940;37.496;2023-08-17T09:52:29;7.28;;;3.30;;
69847;SDS011;57143;55.940;37.496;2023-08-17T09:54:56;7.73;;;2.90;;
69847;SDS011;57143;55.940;37.496;2023-08-17T09:57:30;5.80;;;3.08;;
69847;SDS011;57143;55.940;37.496;2023-08-17T09:59:59;6.63;;;3.15;;
69847;SDS011;57143;55.940;37.496;2023-08-17T10:02:26;6.72;;;2.75;;
69847;SDS011;57143;55.940;37.496;2023-08-17T10:04:56;6.53;;;3.03;;
69847;SDS011;57143;55.940;37.496;2023-08-17T10:07:29;6.13;;;2.90;;
69847;SDS011;57143;55.940;37.496;2023-08-17T10:09:59;5.80;;;2.75;;
69847;SDS011;57143;55.940;37.496;2023-08-17T10:12:36;6.80;;;2.88;;
69847;SDS011;57143;55.940;37.496;2023-08-17T10:15:11;6.82;;;3.03;;
69847;SDS011;57143;55.940;37.496;2023-08-17T10:17:39;6.47;;;3.13;;
69847;SDS011;57143;55.940;37.496;2023-08-17T10:20:12;6.07;;;2.93;;
69847;SDS011;57143;55.940;37.496;2023-08-17T10:22:43;6.35;;;3.15;;
69847;SDS011;57143;55.940;37.496;2023-08-17T10:25:15;6.25;;;3.47;;
69847;SDS011;57143;55.940;37.496;2023-08-17T10:27:45;5.95;;;2.72;;
69847;SDS011;57143;55.940;37.496;2023-08-17T10:30:12;5.55;;;2.78;;
69847;SDS011;57143;55.940;37.496;2023-08-17T10:32:40;8.27;;;3.33;;
69847;SDS011;57143;55.940;37.496;2023-08-17T10:35:10;6.28;;;3.10;;
69847;SDS011;57143;55.940;37.496;2023-08-17T10:37:39;9.52;;;4.90;;
69847;SDS011;57143;55.940;37.496;2023-08-17T10:40:08;5.80;;;2.80;;
69847;SDS011;57143;55.940;37.496;2023-08-17T10:42:37;5.85;;;3.40;;
69847;SDS011;57143;55.940;37.496;2023-08-17T10:51:02;7.00;;;3.47;;
69847;SDS011;57143;55.940;37.496;2023-08-17T10:53:35;7.20;;;3.20;;
69847;SDS011;57143;55.940;37.496;2023-08-17T10:56:06;7.82;;;3.83;;
69847;SDS011;57143;55.940;37.496;2023-08-17T10:58:34;6.90;;;3.20;;
69847;SDS011;57143;55.940;37.496;2023-08-17T11:01:03;8.50;;;2.83;;
69847;SDS011;57143;55.940;37.496;2023-08-17T11:03:31;5.75;;;3.00;;
69847;SDS011;57143;55.940;37.496;2023-08-17T11:05:58;5.90;;;2.85;;
69847;SDS011;57143;55.940;37.496;2023-08-17T11:08:50;8.02;;;3.90;;
69847;SDS011;57143;55.940;37.496;2023-08-17T11:11:20;7.50;;;2.97;;
69847;SDS011;57143;55.940;37.496;2023-08-17T11:13:48;6.57;;;3.20;;
69847;SDS011;57143;55.940;37.496;2023-08-17T11:16:17;8.13;;;3.33;;
69847;SDS011;57143;55.940;37.496;2023-08-17T11:18:45;8.00;;;3.22;;
69847;SDS011;57143;55.940;37.496;2023-08-17T11:21:15;8.45;;;3.00;;
69847;SDS011;57143;55.940;37.496;2023-08-17T11:23:42;5.33;;;2.80;;
69847;SDS011;57143;55.940;37.496;2023-08-17T11:26:10;6.57;;;2.78;;
69847;SDS011;57143;55.940;37.496;2023-08-17T11:28:38;7.47;;;2.65;;
69847;SDS011;57143;55.940;37.496;2023-08-17T11:31:07;7.28;;;3.10;;
69847;SDS011;57143;55.940;37.496;2023-08-17T11:33:37;7.78;;;3.00;;
69847;SDS011;57143;55.940;37.496;2023-08-17T11:36:05;10.60;;;3.20;;
69847;SDS011;57143;55.940;37.496;2023-08-17T11:38:35;7.55;;;3.10;;
69847;SDS011;57143;55.940;37.496;2023-08-17T11:41:04;7.07;;;3.03;;
69847;SDS011;57143;55.940;37.496;2023-08-17T11:43:32;6.47;;;3.33;;
69847;SDS011;57143;55.940;37.496;2023-08-17T11:46:00;6.57;;;2.95;;
69847;SDS011;57143;55.940;37.496;2023-08-17T11:48:28;7.77;;;3.73;;
69847;SDS011;57143;55.940;37.496;2023-08-17T11:50:58;8.32;;;3.85;;
69847;SDS011;57143;55.940;37.496;2023-08-17T11:53:25;6.45;;;3.38;;
69847;SDS011;57143;55.940;37.496;2023-08-17T11:56:00;6.43;;;3.33;;
69847;SDS011;57143;55.940;37.496;2023-08-17T11:58:36;7.43;;;3.38;;
69847;SDS011;57143;55.940;37.496;2023-08-17T12:01:11;7.33;;;3.10;;
69847;SDS011;57143;55.940;37.496;2023-08-17T12:03:41;7.68;;;3.28;;
69847;SDS011;57143;55.940;37.496;2023-08-17T12:06:09;7.15;;;3.45;;
69847;SDS011;57143;55.940;37.496;2023-08-17T12:08:38;5.75;;;3.17;;
69847;SDS011;57143;55.940;37.496;2023-08-17T12:11:07;7.65;;;3.20;;
69847;SDS011;57143;55.940;37.496;2023-08-17T12:13:34;8.00;;;2.93;;
69847;SDS011;57143;55.940;37.496;2023-08-17T12:16:02;5.63;;;2.83;;
69847;SDS011;57143;55.940;37.496;2023-08-17T12:18:32;8.32;;;3.15;;
69847;SDS011;57143;55.940;37.496;2023-08-17T12:20:59;7.65;;;3.35;;
69847;SDS011;57143;55.940;37.496;2023-08-17T12:23:28;7.18;;;2.70;;
69847;SDS011;57143;55.940;37.496;2023-08-17T12:25:55;7.73;;;3.20;;
69847;SDS011;57143;55.940;37.496;2023-08-17T12:28:23;7.25;;;3.22;;
69847;SDS011;57143;55.940;37.496;2023-08-17T12:30:59;6.82;;;3.08;;
69847;SDS011;57143;55.940;37.496;2023-08-17T12:33:27;6.05;;;3.05;;
69847;SDS011;57143;55.940;37.496;2023-08-17T12:35:54;5.70;;;2.85;;
69847;SDS011;57143;55.940;37.496;2023-08-17T12:38:23;6.27;;;2.73;;
69847;SDS011;57143;55.940;37.496;2023-08-17T12:40:52;5.40;;;2.70;;
69847;SDS011;57143;55.940;37.496;2023-08-17T12:43:20;15.48;;;4.15;;
69847;SDS011;57143;55.940;37.496;2023-08-17T12:45:47;6.57;;;3.15;;
69847;SDS011;57143;55.940;37.496;2023-08-17T12:48:14;6.78;;;3.22;;
69847;SDS011;57143;55.940;37.496;2023-08-17T12:50:42;6.70;;;3.13;;
69847;SDS011;57143;55.940;37.496;2023-08-17T12:53:09;6.70;;;2.60;;
69847;SDS011;57143;55.940;37.496;2023-08-17T12:55:36;6.50;;;3.08;;
69847;SDS011;57143;55.940;37.496;2023-08-17T12:58:07;7.35;;;3.15;;
69847;SDS011;57143;55.940;37.496;2023-08-17T13:00:35;6.32;;;2.60;;
69847;SDS011;57143;55.940;37.496;2023-08-17T13:03:02;7.53;;;3.00;;
69847;SDS011;57143;55.940;37.496;2023-08-17T13:05:30;7.70;;;2.95;;
69847;SDS011;57143;55.940;37.496;2023-08-17T13:07:57;7.57;;;3.10;;
69847;SDS011;57143;55.940;37.496;2023-08-17T13:10:25;6.03;;;3.10;;
69847;SDS011;57143;55.940;37.496;2023-08-17T13:12:52;6.43;;;3.10;;
69847;SDS011;57143;55.940;37.496;2023-08-17T13:15:23;11.47;;;3.00;;
69847;SDS011;57143;55.940;37.496;2023-08-17T13:17:50;6.07;;;2.90;;
69847;SDS011;57143;55.940;37.496;2023-08-17T13:20:17;7.80;;;3.40;;
69847;SDS011;57143;55.940;37.496;2023-08-17T13:22:45;7.05;;;3.03;;
69847;SDS011;57143;55.940;37.496;2023-08-17T13:25:12;7.90;;;2.83;;
69847;SDS011;57143;55.940;37.496;2023-08-17T13:27:42;6.00;;;2.50;;
69847;SDS011;57143;55.940;37.496;2023-08-17T13:30:09;7.25;;;2.90;;
69847;SDS011;57143;55.940;37.496;2023-08-17T13:32:38;9.05;;;3.05;;
69847;SDS011;57143;55.940;37.496;2023-08-17T13:35:06;5.90;;;3.00;;
69847;SDS011;57143;55.940;37.496;2023-08-17T13:37:35;6.03;;;3.13;;
69847;SDS011;57143;55.940;37.496;2023-08-17T13:40:03;7.77;;;2.90;;
69847;SDS011;57143;55.940;37.496;2023-08-17T13:42:31;8.88;;;5.00;;
69847;SDS011;57143;55.940;37.496;2023-08-17T13:44:59;6.38;;;3.20;;
69847;SDS011;57143;55.940;37.496;2023-08-17T13:47:26;7.72;;;3.42;;
69847;SDS011;57143;55.940;37.496;2023-08-17T13:49:55;6.82;;;3.42;;
69847;SDS011;57143;55.940;37.496;2023-08-17T13:52:23;8.07;;;3.17;;
69847;SDS011;57143;55.940;37.496;2023-08-17T13:54:50;7.03;;;2.67;;
69847;SDS011;57143;55.940;37.496;2023-08-17T13:57:17;6.40;;;2.88;;
69847;SDS011;57143;55.940;37.496;2023-08-17T13:59:44;6.95;;;3.45;;
69847;SDS011;57143;55.940;37.496;2023-08-17T14:02:12;7.50;;;3.58;;
69847;SDS011;57143;55.940;37.496;2023-08-17T14:04:39;9.63;;;5.27;;
69847;SDS011;57143;55.940;37.496;2023-08-17T14:07:07;7.18;;;3.47;;
69847;SDS011;57143;55.940;37.496;2023-08-17T14:09:35;6.75;;;2.70;;
69847;SDS011;57143;55.940;37.496;2023-08-17T14:12:02;7.85;;;3.20;;
69847;SDS011;57143;55.940;37.496;2023-08-17T14:14:30;7.65;;;3.83;;
69847;SDS011;57143;55.940;37.496;2023-08-17T14:16:58;5.80;;;2.83;;
69847;SDS011;57143;55.940;37.496;2023-08-17T14:19:25;8.18;;;3.50;;
69847;SDS011;57143;55.940;37.496;2023-08-17T14:21:52;9.55;;;3.97;;
69847;SDS011;57143;55.940;37.496;2023-08-17T14:24:21;10.05;;;4.22;;
69847;SDS011;57143;55.940;37.496;2023-08-17T14:26:48;6.90;;;3.08;;
69847;SDS011;57143;55.940;37.496;2023-08-17T14:29:15;6.87;;;3.40;;
69847;SDS011;57143;55.940;37.496;2023-08-17T14:31:42;9.75;;;3.30;;
69847;SDS011;57143;55.940;37.496;2023-08-17T14:34:10;7.53;;;3.40;;
69847;SDS011;57143;55.940;37.496;2023-08-17T14:36:37;6.25;;;3.20;;
69847;SDS011;57143;55.940;37.496;2023-08-17T14:39:04;6.97;;;2.90;;
69847;SDS011;57143;55.940;37.496;2023-08-17T14:41:33;9.57;;;2.87;;
69847;SDS011;57143;55.940;37.496;2023-08-17T14:44:00;7.45;;;3.22;;